Aérodrome :
LOGIN :

S'inscrire | Disclaimer

   EN    FR    IT 

 










Légende :    VFR   VFR Marginal   IFR   IFR Intensif   IFR Très Intensif
Visi : 
Plafond : 
>= 8 km
>= 3000ft
5 à 8 km
1000 à 3000 ft
1500m à 5 km
500 à 1000 ft
800 à 1500m
200 à 500 ft
< 800m
< 200 ft
Symboles :   Orages  Brouillard  Fortes neiges  Fortes précipitations  Vent > 20 kt
SIGMETs :   Divers  Orages  Givrage  Turbulence  Onde Orograph.  Cendres Volcan.







- Altitude de l'aérodrome : 1910 ft
- Code IATA : RDZ
- Voir les cartes d'approche


LFCR - Rodez

DERNIER METAR :
  • 211530Z AUTO 26003KT CAVOK 15/05 Q1019 NOSIG

METARs EXPIRÉS :
  • 211500Z AUTO VRB02KT CAVOK 17/05 Q1020 NOSIG
  • 211430Z AUTO 00000KT CAVOK 18/06 Q1020 NOSIG
  • 211400Z AUTO VRB02KT CAVOK 17/05 Q1020 NOSIG
  • 211330Z AUTO 11003KT 050V160 CAVOK 17/04 Q1020 NOSIG
  • 211300Z AUTO VRB02KT CAVOK 16/04 Q1020 NOSIG

TAF TAF LFCR
Valide du 21 à 12h jusqu'au 22 à 12h UTC


211100Z 2112/2212 VRB02KT CAVOK
BECMG 2118/2120 14008KT
BECMG 2209/2211 14012KT
Pas de NOTAMs connus pour ce terrain.



MET'MAP, la Météo Aéronautique d'un coup d'oeil ! - Copyright ORBIFLY Décembre 2007 - Disclaimer

ORBIFLY MET'MAP TEAM :

Programmation & Développement : Alexandra Zaïnal
Conception & Développement : Baudouin d'Aumeries
Co-Programmation & Développement : Marc-Olivier Méhu
Soutien technique & logistique : Manuel Goepfert

Contact : metmap@orbifly.com




SOURCES & CREDITS :

   NOAA